Time;durP1;ratioP1;P1;durP2;ratioP2;P2;SDS_P1;SDS_P2;PMS_P1;PMS_P2;Temp;Humidity;BMP_temperature;BMP_pressure;BME280_temperature;BME280_humidity;BME280_pressure;Samples;Min_cycle;Max_cycle;Signal;HPM_P1;HPM_P2
2023/09/14 04:42:46;;;;;;;;;21.00;21.00;;;;;;;;6280058;22;45746;-72
2023/09/14 04:45:11;;;;;;;;;22.33;21.00;;;;;;;;6309372;22;45483;-73
2023/09/14 04:47:37;;;;;;;;;25.67;23.67;;;;;;;;6309086;22;45145;-73
2023/09/14 04:50:02;;;;;;;;;21.67;21.67;;;;;;;;6309748;22;45124;-74
2023/09/14 04:52:27;;;;;;;;;24.33;19.00;;;;;;;;6309331;22;45128;-73
2023/09/14 04:54:52;;;;;;;;;23.00;20.67;;;;;;;;6309712;22;45120;-73
2023/09/14 04:57:18;;;;;;;;;21.33;21.33;;;;;;;;6308760;22;46042;-74
2023/09/14 04:59:43;;;;;;;;;21.00;20.67;;;;;;;;6311345;22;45190;-74
2023/09/14 05:02:08;;;;;;;;;21.33;20.00;;;;;;;;6309211;22;45148;-74
2023/09/14 05:04:33;;;;;;;;;32.00;23.00;;;;;;;;6311191;22;45496;-74
2023/09/14 05:06:59;;;;;;;;;19.00;16.67;;;;;;;;6309392;22;45355;-75
2023/09/14 05:09:24;;;;;;;;;19.67;16.33;;;;;;;;6309808;22;45124;-75
2023/09/14 05:11:49;;;;;;;;;20.67;20.00;;;;;;;;6307026;22;45610;-76
2023/09/14 05:14:14;;;;;;;;;22.00;22.00;;;;;;;;6309614;22;45209;-75
2023/09/14 05:16:39;;;;;;;;;17.67;15.00;;;;;;;;6308669;22;46722;-75
2023/09/14 05:19:04;;;;;;;;;19.00;17.67;;;;;;;;6309512;22;44606;-75
2023/09/14 05:21:30;;;;;;;;;20.33;18.00;;;;;;;;6309136;22;45389;-79
2023/09/14 05:23:55;;;;;;;;;22.33;18.33;;;;;;;;6309367;22;45342;-77
2023/09/14 05:26:20;;;;;;;;;18.67;17.33;;;;;;;;6308326;22;46180;-77
2023/09/14 05:28:45;;;;;;;;;20.67;18.67;;;;;;;;6309633;22;45143;-76
2023/09/14 05:31:10;;;;;;;;;19.33;18.67;;;;;;;;6309045;22;45400;-76
2023/09/14 05:33:36;;;;;;;;;19.00;17.67;;;;;;;;6309345;22;45362;-77
2023/09/14 05:36:01;;;;;;;;;16.33;16.33;;;;;;;;6308835;22;45349;-76
2023/09/14 05:38:26;;;;;;;;;19.67;18.67;;;;;;;;6309337;22;45251;-77
2023/09/14 05:40:53;;;;;;;;;17.33;17.00;;;;;;;;6308333;22;45243;-76
2023/09/14 05:43:18;;;;;;;;;20.33;20.33;;;;;;;;6280449;22;46578;-76
2023/09/14 05:45:43;;;;;;;;;21.67;20.00;;;;;;;;6308862;22;45337;-77
2023/09/14 05:48:08;;;;;;;;;18.67;17.00;;;;;;;;6309066;22;45309;-76
2023/09/14 05:50:35;;;;;;;;;20.67;19.67;;;;;;;;6309309;22;45294;-77
2023/09/14 05:53:00;;;;;;;;;25.33;22.67;;;;;;;;6309393;22;45278;-76
2023/09/14 05:55:25;;;;;;;;;23.00;22.33;;;;;;;;6279946;22;45406;-77
2023/09/14 05:57:51;;;;;;;;;20.67;19.33;;;;;;;;6308722;22;45278;-75
2023/09/14 06:00:17;;;;;;;;;23.67;19.67;;;;;;;;6309456;22;45270;-74
2023/09/14 06:02:42;;;;;;;;;26.00;24.00;;;;;;;;6308645;22;45215;-75
2023/09/14 06:05:07;;;;;;;;;28.00;26.00;;;;;;;;6308982;22;45235;-74
2023/09/14 06:07:33;;;;;;;;;28.67;26.67;;;;;;;;6308545;22;45254;-75
2023/09/14 06:09:58;;;;;;;;;25.33;24.67;;;;;;;;6309403;22;45232;-75
2023/09/14 06:12:23;;;;;;;;;24.33;23.33;;;;;;;;6308312;22;45565;-74
2023/09/14 06:14:48;;;;;;;;;26.33;24.00;;;;;;;;6308913;22;45184;-74
2023/09/14 06:17:14;;;;;;;;;26.67;23.00;;;;;;;;6308638;22;45390;-75
2023/09/14 06:19:39;;;;;;;;;25.33;22.33;;;;;;;;6309178;22;45150;-75
2023/09/14 06:22:05;;;;;;;;;23.00;21.00;;;;;;;;6308668;22;45452;-75
2023/09/14 06:24:30;;;;;;;;;26.67;22.67;;;;;;;;6306921;22;45278;-76
2023/09/14 06:26:56;;;;;;;;;19.67;17.33;;;;;;;;6308305;22;45148;-75
2023/09/14 06:29:21;;;;;;;;;16.67;14.00;;;;;;;;6280154;22;45520;-75
2023/09/14 06:31:46;;;;;;;;;21.67;18.33;;;;;;;;6308431;22;45433;-76
2023/09/14 06:34:11;;;;;;;;;22.33;20.33;;;;;;;;6308750;22;45251;-72
2023/09/14 06:36:36;;;;;;;;;22.33;21.33;;;;;;;;6308219;22;45306;-72
2023/09/14 06:39:02;;;;;;;;;18.33;17.00;;;;;;;;6308808;22;45158;-72
2023/09/14 06:41:27;;;;;;;;;20.33;18.00;;;;;;;;6306580;22;45226;-73
2023/09/14 06:43:52;;;;;;;;;26.00;23.00;;;;;;;;6307717;22;45354;-72
2023/09/14 06:46:18;;;;;;;;;25.67;19.67;;;;;;;;6279743;22;45904;-73
2023/09/14 06:48:43;;;;;;;;;21.33;21.33;;;;;;;;6308680;22;45075;-73
2023/09/14 06:51:08;;;;;;;;;25.33;22.00;;;;;;;;6308239;22;45219;-73
2023/09/14 06:53:33;;;;;;;;;23.67;21.00;;;;;;;;6280106;22;46598;-72
2023/09/14 06:56:08;;;;;;;;;30.00;27.67;;;;;;;;6278938;22;45373;-72
2023/09/14 06:58:34;;;;;;;;;27.33;25.67;;;;;;;;6281029;22;45226;-72
2023/09/14 07:01:04;;;;;;;;;28.00;24.33;;;;;;;;6308126;22;45267;-72
2023/09/14 07:03:30;;;;;;;;;25.33;24.67;;;;;;;;6307896;22;46199;-72
2023/09/14 07:05:55;;;;;;;;;27.00;26.33;;;;;;;;6308246;22;45233;-72
2023/09/14 07:08:20;;;;;;;;;27.33;25.00;;;;;;;;6307148;22;45180;-73
2023/09/14 07:10:45;;;;;;;;;27.00;26.00;;;;;;;;6279442;22;46697;-73
2023/09/14 07:13:10;;;;;;;;;23.67;22.67;;;;;;;;6280057;22;45406;-73
2023/09/14 07:15:36;;;;;;;;;27.67;22.67;;;;;;;;6306865;22;45151;-73
2023/09/14 07:18:01;;;;;;;;;23.33;22.67;;;;;;;;6308846;22;45186;-73
2023/09/14 07:20:26;;;;;;;;;26.33;24.67;;;;;;;;6308363;22;45227;-73
2023/09/14 07:22:53;;;;;;;;;26.33;23.00;;;;;;;;6308395;22;46088;-73
2023/09/14 07:25:19;;;;;;;;;27.00;25.67;;;;;;;;6308305;22;45270;-73
2023/09/14 07:27:44;;;;;;;;;25.00;23.67;;;;;;;;6307564;22;45236;-73
2023/09/14 07:30:11;;;;;;;;;22.00;22.00;;;;;;;;6308339;22;44935;-73
2023/09/14 07:32:37;;;;;;;;;26.00;21.67;;;;;;;;6307587;22;45560;-73
2023/09/14 07:35:02;;;;;;;;;27.00;22.67;;;;;;;;6307125;22;45208;-73
2023/09/14 07:37:28;;;;;;;;;28.00;26.33;;;;;;;;6307333;22;45213;-73
2023/09/14 07:39:53;;;;;;;;;26.33;24.33;;;;;;;;6307919;22;45376;-73
2023/09/14 07:42:19;;;;;;;;;26.00;24.67;;;;;;;;6308815;22;45890;-73
2023/09/14 07:44:44;;;;;;;;;29.00;26.33;;;;;;;;6308227;22;45235;-73
2023/09/14 07:47:09;;;;;;;;;27.67;25.00;;;;;;;;6309862;22;45229;-73
2023/09/14 07:49:34;;;;;;;;;28.67;27.00;;;;;;;;6309578;22;45203;-73
2023/09/14 07:51:59;;;;;;;;;27.00;25.00;;;;;;;;6309385;22;46079;-73
2023/09/14 07:54:24;;;;;;;;;30.50;25.50;;;;;;;;6309812;22;45205;-73
2023/09/14 07:56:50;;;;;;;;;21.67;21.67;;;;;;;;6309358;22;45216;-74
2023/09/14 07:59:15;;;;;;;;;30.67;26.00;;;;;;;;6281142;22;45223;-73
2023/09/14 08:01:40;;;;;;;;;33.67;30.00;;;;;;;;6309422;22;45856;-73
2023/09/14 08:04:05;;;;;;;;;33.00;29.67;;;;;;;;6309977;22;45208;-73
2023/09/14 08:06:31;;;;;;;;;27.33;26.67;;;;;;;;6309694;22;45512;-73
2023/09/14 08:08:57;;;;;;;;;27.33;26.67;;;;;;;;6309297;22;45403;-73
2023/09/14 08:11:22;;;;;;;;;33.33;29.00;;;;;;;;6280340;22;45574;-73
2023/09/14 08:13:47;;;;;;;;;28.00;25.67;;;;;;;;6309014;22;45279;-73
2023/09/14 08:16:13;;;;;;;;;27.67;25.33;;;;;;;;6281119;22;44708;-76
2023/09/14 08:18:38;;;;;;;;;30.00;25.67;;;;;;;;6309541;22;45179;-72
2023/09/14 08:21:03;;;;;;;;;34.67;29.33;;;;;;;;6309316;22;45177;-72
2023/09/14 08:23:29;;;;;;;;;28.00;25.67;;;;;;;;6309651;22;45784;-75
2023/09/14 08:25:54;;;;;;;;;35.67;29.00;;;;;;;;6309122;22;45423;-75
2023/09/14 08:28:20;;;;;;;;;25.00;23.33;;;;;;;;6280315;22;45431;-74
2023/09/14 08:30:45;;;;;;;;;31.67;30.00;;;;;;;;6309148;22;45928;-73
2023/09/14 08:33:11;;;;;;;;;29.00;26.67;;;;;;;;6309086;22;45242;-73
2023/09/14 08:35:37;;;;;;;;;36.00;29.33;;;;;;;;6309702;22;45283;-73
2023/09/14 08:38:03;;;;;;;;;38.00;31.33;;;;;;;;6309633;22;45409;-73
2023/09/14 08:40:29;;;;;;;;;34.00;28.67;;;;;;;;6280663;22;46170;-72
2023/09/14 08:42:55;;;;;;;;;31.33;28.00;;;;;;;;6308576;22;45082;-73
2023/09/14 08:45:23;;;;;;;;;33.67;29.67;;;;;;;;6308025;22;45454;-73
2023/09/14 08:47:49;;;;;;;;;30.33;29.33;;;;;;;;6280582;22;45508;-73
2023/09/14 08:50:15;;;;;;;;;34.67;28.67;;;;;;;;6309312;22;46109;-72
2023/09/14 08:52:41;;;;;;;;;29.33;28.67;;;;;;;;6309042;22;45194;-73
2023/09/14 08:55:06;;;;;;;;;31.67;29.00;;;;;;;;6309015;22;45300;-73
2023/09/14 08:57:32;;;;;;;;;38.00;31.67;;;;;;;;6308787;22;45413;-73
2023/09/14 08:59:59;;;;;;;;;32.67;29.00;;;;;;;;6309220;22;45137;-73
2023/09/14 09:02:27;;;;;;;;;33.67;31.67;;;;;;;;6280461;22;45492;-73
2023/09/14 09:04:52;;;;;;;;;32.67;30.33;;;;;;;;6309277;22;45232;-73
2023/09/14 09:07:17;;;;;;;;;29.33;27.00;;;;;;;;6308280;22;45265;-74
2023/09/14 09:09:43;;;;;;;;;37.33;31.67;;;;;;;;6309173;22;45958;-75
2023/09/14 09:12:08;;;;;;;;;31.00;29.00;;;;;;;;6308952;22;45282;-75
2023/09/14 09:14:37;;;;;;;;;30.67;25.67;;;;;;;;6281227;22;45295;-74
2023/09/14 09:17:02;;;;;;;;;31.00;27.33;;;;;;;;6280467;22;46998;-75
2023/09/14 09:19:28;;;;;;;;;25.00;22.67;;;;;;;;6309180;22;45147;-74
2023/09/14 09:21:53;;;;;;;;;35.67;31.33;;;;;;;;6281200;22;45370;-73
2023/09/14 09:24:25;;;;;;;;;36.33;30.00;;;;;;;;6309519;22;45537;-74
2023/09/14 09:26:50;;;;;;;;;28.33;25.67;;;;;;;;6308527;22;45353;-75
2023/09/14 09:29:19;;;;;;;;;29.33;27.33;;;;;;;;6281526;22;46173;-75
2023/09/14 09:31:45;;;;;;;;;25.33;24.67;;;;;;;;6309050;22;45240;-75
2023/09/14 09:34:11;;;;;;;;;29.00;27.00;;;;;;;;6280746;22;45240;-75
2023/09/14 09:36:37;;;;;;;;;25.33;20.33;;;;;;;;6280526;22;47905;-74
2023/09/14 09:39:04;;;;;;;;;31.00;29.67;;;;;;;;6309393;22;45335;-74
2023/09/14 09:41:36;;;;;;;;;28.00;24.67;;;;;;;;6308247;22;45282;-75
2023/09/14 09:44:09;;;;;;;;;36.00;29.33;;;;;;;;6309508;22;45251;-74
2023/09/14 09:46:35;;;;;;;;;28.67;27.33;;;;;;;;6308914;22;45386;-75
2023/09/14 09:49:00;;;;;;;;;28.67;27.33;;;;;;;;6308672;22;46542;-75
2023/09/14 09:51:25;;;;;;;;;32.00;27.00;;;;;;;;6307160;22;45239;-75
2023/09/14 09:54:00;;;;;;;;;31.67;28.33;;;;;;;;6309569;22;45133;-75
2023/09/14 09:56:26;;;;;;;;;37.67;30.00;;;;;;;;6308616;22;45081;-74
2023/09/14 09:58:51;;;;;;;;;35.33;29.67;;;;;;;;6309040;22;45164;-74
2023/09/14 10:01:20;;;;;;;;;28.33;26.67;;;;;;;;6307975;22;45246;-75
2023/09/14 10:03:46;;;;;;;;;28.33;24.00;;;;;;;;6308288;22;45410;-75
2023/09/14 10:06:12;;;;;;;;;31.33;30.00;;;;;;;;6308842;22;45256;-75
2023/09/14 10:08:37;;;;;;;;;26.75;25.50;;;;;;;;6280792;22;47746;-75
2023/09/14 10:11:03;;;;;;;;;23.25;22.00;;;;;;;;6308857;22;45168;-75
2023/09/14 10:13:29;;;;;;;;;24.50;23.25;;;;;;;;6309333;22;45144;-75
2023/09/14 10:15:55;;;;;;;;;25.25;24.00;;;;;;;;6280478;22;45485;-75
2023/09/14 10:18:21;;;;;;;;;24.00;22.50;;;;;;;;6309355;22;45195;-76
2023/09/14 10:20:49;;;;;;;;;23.75;22.50;;;;;;;;6308921;22;45278;-75
2023/09/14 10:23:16;;;;;;;;;25.50;21.75;;;;;;;;6309036;22;45270;-75
2023/09/14 10:25:43;;;;;;;;;17.50;15.50;;;;;;;;6279580;22;45643;-75
2023/09/14 10:28:08;;;;;;;;;16.75;15.00;;;;;;;;6308505;22;45729;-75
2023/09/14 10:30:34;;;;;;;;;21.25;20.00;;;;;;;;6308875;22;45216;-75
2023/09/14 10:33:00;;;;;;;;;21.00;18.00;;;;;;;;6308925;22;45145;-75
2023/09/14 10:35:26;;;;;;;;;16.75;15.75;;;;;;;;6309017;22;45418;-75
2023/09/14 10:37:53;;;;;;;;;18.50;17.25;;;;;;;;6308287;22;45282;-75
2023/09/14 10:40:18;;;;;;;;;20.50;18.25;;;;;;;;6308863;22;45283;-76
2023/09/14 10:42:43;;;;;;;;;12.25;12.00;;;;;;;;6306968;22;45433;-76
2023/09/14 10:45:13;;;;;;;;;19.50;18.00;;;;;;;;6308812;22;45173;-76
2023/09/14 10:47:40;;;;;;;;;20.25;16.50;;;;;;;;6308046;22;45301;-75
2023/09/14 10:50:06;;;;;;;;;20.00;19.25;;;;;;;;6308618;22;45202;-74
2023/09/14 10:52:32;;;;;;;;;16.00;14.75;;;;;;;;6307550;22;45339;-75
2023/09/14 10:54:57;;;;;;;;;9.00;9.00;;;;;;;;6308837;22;45351;-74
2023/09/14 10:57:24;;;;;;;;;12.25;10.50;;;;;;;;6307823;22;45982;-75
2023/09/14 10:59:50;;;;;;;;;14.25;11.75;;;;;;;;6308802;22;45311;-75
2023/09/14 11:02:33;;;;;;;;;14.75;12.25;;;;;;;;6280317;22;45307;-76
2023/09/14 11:05:11;;;;;;;;;11.00;11.00;;;;;;;;6308627;22;45396;-75
2023/09/14 11:07:37;;;;;;;;;11.00;11.00;;;;;;;;6308083;22;45352;-75
2023/09/14 11:10:03;;;;;;;;;10.75;10.75;;;;;;;;6308597;22;45165;-75
2023/09/14 11:12:28;;;;;;;;;11.25;9.50;;;;;;;;6307883;22;45147;-75
2023/09/14 11:15:14;;;;;;;;;11.25;10.75;;;;;;;;6280927;22;46323;-75
2023/09/14 11:17:42;;;;;;;;;15.50;13.25;;;;;;;;6309364;22;45269;-76
2023/09/14 11:20:20;;;;;;;;;13.75;11.25;;;;;;;;6310045;22;45400;-75
2023/09/14 11:22:46;;;;;;;;;18.75;13.50;;;;;;;;6281718;22;45436;-75
2023/09/14 11:25:24;;;;;;;;;14.25;9.75;;;;;;;;6281581;22;45259;-76
2023/09/14 11:27:49;;;;;;;;;15.75;14.00;;;;;;;;6309126;22;45299;-75
2023/09/14 11:30:15;;;;;;;;;15.75;15.75;;;;;;;;6309786;22;45229;-75
2023/09/14 11:32:41;;;;;;;;;18.00;16.00;;;;;;;;6309604;22;45223;-75
2023/09/14 11:35:06;;;;;;;;;19.00;15.00;;;;;;;;6309639;22;45105;-74
2023/09/14 11:37:32;;;;;;;;;13.00;11.75;;;;;;;;6309273;22;46190;-76
2023/09/14 11:39:57;;;;;;;;;13.50;12.25;;;;;;;;6309838;22;45407;-75
2023/09/14 11:42:23;;;;;;;;;14.50;13.75;;;;;;;;6308725;22;45355;-75
2023/09/14 11:44:50;;;;;;;;;13.00;11.00;;;;;;;;6309584;22;45185;-75
2023/09/14 11:47:15;;;;;;;;;9.25;9.25;;;;;;;;6310276;22;46206;-75
2023/09/14 11:49:41;;;;;;;;;7.00;7.00;;;;;;;;6309278;22;45254;-75
2023/09/14 11:52:07;;;;;;;;;8.25;8.00;;;;;;;;6309832;22;45220;-75
2023/09/14 11:54:35;;;;;;;;;7.25;5.75;;;;;;;;6308986;22;45381;-75
2023/09/14 11:57:03;;;;;;;;;9.75;9.00;;;;;;;;6309065;22;45235;-75
2023/09/14 11:59:29;;;;;;;;;11.40;7.80;;;;;;;;6309558;22;45216;-75
2023/09/14 12:01:54;;;;;;;;;9.75;7.75;;;;;;;;6309559;22;45221;-75
2023/09/14 12:04:20;;;;;;;;;7.50;6.50;;;;;;;;6309866;22;45448;-75
2023/09/14 12:06:45;;;;;;;;;3.50;2.00;;;;;;;;6307916;22;45255;-75
2023/09/14 12:09:11;;;;;;;;;8.25;7.00;;;;;;;;6310080;22;45186;-75
2023/09/14 12:11:42;;;;;;;;;6.25;5.00;;;;;;;;6309278;22;45235;-75
2023/09/14 12:14:07;;;;;;;;;6.00;6.00;;;;;;;;6309650;22;45274;-75
2023/09/14 12:16:36;;;;;;;;;7.50;7.25;;;;;;;;6309235;22;45416;-75
2023/09/14 12:19:01;;;;;;;;;4.00;3.20;;;;;;;;6309999;22;45306;-75
2023/09/14 12:21:27;;;;;;;;;5.75;5.75;;;;;;;;6281427;22;45233;-75
2023/09/14 12:23:53;;;;;;;;;4.50;4.50;;;;;;;;6309695;22;45216;-75
2023/09/14 12:26:20;;;;;;;;;6.25;6.25;;;;;;;;6308211;22;45342;-73
2023/09/14 12:28:49;;;;;;;;;4.00;3.80;;;;;;;;6309266;22;45221;-74
2023/09/14 12:31:14;;;;;;;;;6.80;5.20;;;;;;;;6280492;22;44712;-74
2023/09/14 12:33:40;;;;;;;;;8.50;7.00;;;;;;;;6309633;22;45452;-74
2023/09/14 12:36:05;;;;;;;;;8.00;5.25;;;;;;;;6309455;22;45627;-73
2023/09/14 12:38:31;;;;;;;;;9.25;6.25;;;;;;;;6309766;22;45270;-73
2023/09/14 12:40:57;;;;;;;;;5.75;4.75;;;;;;;;6279683;22;45262;-74
2023/09/14 12:43:22;;;;;;;;;9.00;8.00;;;;;;;;6308637;22;45107;-73
2023/09/14 12:45:48;;;;;;;;;6.50;6.50;;;;;;;;6309176;22;45221;-74
2023/09/14 12:48:15;;;;;;;;;6.00;6.00;;;;;;;;6309360;22;45141;-74
2023/09/14 12:50:41;;;;;;;;;5.60;4.60;;;;;;;;6309179;22;45264;-74
2023/09/14 12:53:10;;;;;;;;;5.00;5.00;;;;;;;;6308876;22;45196;-74
2023/09/14 12:55:39;;;;;;;;;6.00;6.00;;;;;;;;6308693;22;45263;-74
2023/09/14 12:58:04;;;;;;;;;5.60;5.60;;;;;;;;6309237;22;45194;-73
2023/09/14 13:00:31;;;;;;;;;4.75;4.75;;;;;;;;6309083;22;45152;-73
2023/09/14 13:02:57;;;;;;;;;4.80;4.80;;;;;;;;6309032;22;45354;-73
2023/09/14 13:05:23;;;;;;;;;4.50;4.50;;;;;;;;6308517;22;46258;-73
2023/09/14 13:07:49;;;;;;;;;5.00;4.00;;;;;;;;6308987;22;45269;-74
2023/09/14 13:10:18;;;;;;;;;6.20;5.40;;;;;;;;6309541;22;45224;-74
2023/09/14 13:12:50;;;;;;;;;5.50;5.25;;;;;;;;6308258;22;45413;-73
2023/09/14 13:15:20;;;;;;;;;6.20;5.80;;;;;;;;6309181;22;45231;-73
2023/09/14 13:17:45;;;;;;;;;6.60;6.40;;;;;;;;6280825;22;45255;-73
2023/09/14 13:20:11;;;;;;;;;5.25;5.25;;;;;;;;6281522;22;45177;-74
2023/09/14 13:22:36;;;;;;;;;5.25;5.25;;;;;;;;6308922;22;45219;-74
2023/09/14 13:25:03;;;;;;;;;5.25;5.00;;;;;;;;6309032;22;45126;-74
2023/09/14 13:27:31;;;;;;;;;5.60;5.60;;;;;;;;6308571;22;45330;-74
2023/09/14 13:29:56;;;;;;;;;5.25;4.50;;;;;;;;6308429;22;45241;-74
2023/09/14 13:32:21;;;;;;;;;6.00;6.00;;;;;;;;6309207;22;45239;-74
2023/09/14 13:34:47;;;;;;;;;4.25;2.25;;;;;;;;6310084;22;45178;-74
2023/09/14 13:37:12;;;;;;;;;6.25;5.25;;;;;;;;6309042;22;45247;-73
2023/09/14 13:39:37;;;;;;;;;8.75;6.00;;;;;;;;6309560;22;45176;-74
2023/09/14 13:42:02;;;;;;;;;6.75;6.75;;;;;;;;6308382;22;45389;-74
2023/09/14 13:44:28;;;;;;;;;7.75;6.25;;;;;;;;6309038;22;45551;-74
2023/09/14 13:46:53;;;;;;;;;5.00;5.00;;;;;;;;6308977;22;45503;-73
2023/09/14 13:49:18;;;;;;;;;6.75;6.75;;;;;;;;6309248;22;45409;-73
2023/09/14 13:51:43;;;;;;;;;5.75;5.75;;;;;;;;6308822;22;45215;-73
2023/09/14 13:54:08;;;;;;;;;6.50;5.75;;;;;;;;6307359;22;46369;-73
2023/09/14 13:56:34;;;;;;;;;8.50;7.75;;;;;;;;6308782;22;45673;-74
2023/09/14 13:58:59;;;;;;;;;5.50;5.50;;;;;;;;6281408;22;45153;-73
2023/09/14 14:01:26;;;;;;;;;6.00;6.00;;;;;;;;6308913;22;45149;-73
2023/09/14 14:03:51;;;;;;;;;4.80;4.80;;;;;;;;6308970;22;46056;-73
2023/09/14 14:06:16;;;;;;;;;6.50;5.50;;;;;;;;6280157;22;45220;-73
2023/09/14 14:08:41;;;;;;;;;8.00;7.00;;;;;;;;6309250;22;45199;-73
2023/09/14 14:11:07;;;;;;;;;4.75;4.75;;;;;;;;6308559;22;45447;-74
2023/09/14 14:13:33;;;;;;;;;4.40;4.40;;;;;;;;6308579;22;47148;-74
2023/09/14 14:15:58;;;;;;;;;4.75;4.75;;;;;;;;6308919;22;45393;-74
2023/09/14 14:18:25;;;;;;;;;5.00;4.50;;;;;;;;6309299;22;45240;-73
2023/09/14 14:20:50;;;;;;;;;5.00;3.00;;;;;;;;6306490;22;45197;-74
2023/09/14 14:23:15;;;;;;;;;4.50;4.50;;;;;;;;6308980;22;45613;-74
2023/09/14 14:25:40;;;;;;;;;5.75;5.25;;;;;;;;6308698;22;45241;-74
2023/09/14 14:28:06;;;;;;;;;4.00;4.00;;;;;;;;6309037;22;45233;-74
2023/09/14 14:30:31;;;;;;;;;5.50;5.50;;;;;;;;6309103;22;45302;-75
2023/09/14 14:32:56;;;;;;;;;5.75;5.75;;;;;;;;6308391;22;45459;-75
2023/09/14 14:35:21;;;;;;;;;4.25;3.25;;;;;;;;6307911;22;45377;-75
2023/09/14 14:37:47;;;;;;;;;4.50;4.50;;;;;;;;6308830;22;45164;-75
2023/09/14 14:40:12;;;;;;;;;4.75;3.25;;;;;;;;6281209;22;45216;-75
2023/09/14 14:42:38;;;;;;;;;5.00;4.00;;;;;;;;6279231;22;46932;-75
2023/09/14 14:45:06;;;;;;;;;5.25;3.75;;;;;;;;6280701;22;45580;-74
2023/09/14 14:47:31;;;;;;;;;3.60;3.60;;;;;;;;6308253;22;45639;-73
2023/09/14 14:49:56;;;;;;;;;4.75;3.50;;;;;;;;6309230;22;45566;-73
2023/09/14 14:52:22;;;;;;;;;7.00;4.75;;;;;;;;6309665;22;45557;-75
2023/09/14 14:54:47;;;;;;;;;6.25;5.00;;;;;;;;6305449;22;45207;-74
2023/09/14 14:57:14;;;;;;;;;5.25;5.25;;;;;;;;6305345;22;45512;-73
2023/09/14 14:59:39;;;;;;;;;8.60;4.40;;;;;;;;6306780;22;45341;-74
2023/09/14 15:02:04;;;;;;;;;3.75;3.75;;;;;;;;6306815;22;46095;-74
2023/09/14 15:04:29;;;;;;;;;5.75;5.75;;;;;;;;6307152;22;45271;-74
2023/09/14 15:06:55;;;;;;;;;7.50;5.75;;;;;;;;6305468;22;45475;-74
2023/09/14 15:09:20;;;;;;;;;7.75;5.25;;;;;;;;6307484;22;45276;-73
2023/09/14 15:11:45;;;;;;;;;6.50;6.50;;;;;;;;6277996;22;46684;-73
2023/09/14 15:14:11;;;;;;;;;2.25;2.25;;;;;;;;6307097;22;45449;-75
2023/09/14 15:16:36;;;;;;;;;5.75;5.75;;;;;;;;6305892;22;45294;-73
2023/09/14 15:19:02;;;;;;;;;5.00;5.00;;;;;;;;6278844;22;45836;-73
2023/09/14 15:21:29;;;;;;;;;3.40;3.40;;;;;;;;6306498;22;47412;-74
2023/09/14 15:23:54;;;;;;;;;4.00;4.00;;;;;;;;6307031;22;45494;-73
2023/09/14 15:26:19;;;;;;;;;3.75;3.75;;;;;;;;6306257;22;45410;-74
2023/09/14 15:28:49;;;;;;;;;8.50;5.75;;;;;;;;6307175;22;45275;-73
2023/09/14 15:31:17;;;;;;;;;5.00;3.40;;;;;;;;6304430;22;45325;-73
2023/09/14 15:33:42;;;;;;;;;3.20;3.20;;;;;;;;6305527;22;45395;-73
2023/09/14 15:36:08;;;;;;;;;6.00;5.00;;;;;;;;6305259;22;45332;-73
2023/09/14 15:38:33;;;;;;;;;5.00;4.00;;;;;;;;6307047;22;45434;-73
2023/09/14 15:40:58;;;;;;;;;5.25;4.25;;;;;;;;6306285;22;45408;-74
2023/09/14 15:43:23;;;;;;;;;5.00;5.00;;;;;;;;6306274;22;45281;-74
2023/09/14 15:45:53;;;;;;;;;7.00;7.00;;;;;;;;6306385;22;45274;-73
2023/09/14 15:48:20;;;;;;;;;5.20;5.00;;;;;;;;6306238;22;45437;-74
2023/09/14 15:50:46;;;;;;;;;5.40;5.40;;;;;;;;6306347;22;45312;-73
2023/09/14 15:53:11;;;;;;;;;5.75;5.75;;;;;;;;6307145;22;45308;-73
2023/09/14 15:55:36;;;;;;;;;8.25;6.50;;;;;;;;6306332;22;44692;-73
2023/09/14 15:58:01;;;;;;;;;5.00;4.00;;;;;;;;6306384;22;45236;-73
2023/09/14 16:00:27;;;;;;;;;5.75;4.75;;;;;;;;6306912;22;46302;-73
2023/09/14 16:02:52;;;;;;;;;4.50;4.50;;;;;;;;6307288;22;45363;-72
2023/09/14 16:05:18;;;;;;;;;5.00;4.00;;;;;;;;6307008;22;45246;-73
2023/09/14 16:07:43;;;;;;;;;4.25;4.25;;;;;;;;6306244;22;45474;-74
2023/09/14 16:10:11;;;;;;;;;5.25;5.25;;;;;;;;6306757;22;45945;-74
2023/09/14 16:12:40;;;;;;;;;6.80;5.00;;;;;;;;6306084;22;45515;-74
2023/09/14 16:15:07;;;;;;;;;4.80;4.80;;;;;;;;6278632;22;45583;-74
2023/09/14 16:17:32;;;;;;;;;3.80;3.00;;;;;;;;6305886;22;45540;-73
2023/09/14 16:19:57;;;;;;;;;5.75;4.50;;;;;;;;6306820;22;45318;-74
2023/09/14 16:22:22;;;;;;;;;5.50;4.50;;;;;;;;6306577;22;45402;-74
2023/09/14 16:24:48;;;;;;;;;6.25;5.00;;;;;;;;6306719;22;45490;-73
2023/09/14 16:27:13;;;;;;;;;8.00;6.75;;;;;;;;6277879;22;45900;-74
2023/09/14 16:29:38;;;;;;;;;6.75;6.50;;;;;;;;6304369;22;45905;-74
2023/09/14 16:32:04;;;;;;;;;4.25;4.25;;;;;;;;6277724;22;45459;-74
2023/09/14 16:34:29;;;;;;;;;3.75;3.75;;;;;;;;6305757;22;45279;-73
2023/09/14 16:36:56;;;;;;;;;7.25;6.75;;;;;;;;6306154;22;45360;-73
2023/09/14 16:39:21;;;;;;;;;7.00;4.60;;;;;;;;6305496;22;47034;-73
2023/09/14 16:41:46;;;;;;;;;7.00;6.00;;;;;;;;6305217;22;45355;-73
2023/09/14 16:44:12;;;;;;;;;5.50;5.50;;;;;;;;6278076;22;45690;-73
2023/09/14 16:46:37;;;;;;;;;4.50;4.50;;;;;;;;6306262;22;45193;-73
2023/09/14 16:49:19;;;;;;;;;6.25;5.00;;;;;;;;6306142;22;45305;-73
2023/09/14 16:51:45;;;;;;;;;7.20;6.00;;;;;;;;6305818;22;45338;-73
2023/09/14 16:54:10;;;;;;;;;5.50;5.50;;;;;;;;6305336;22;45385;-73
2023/09/14 16:56:35;;;;;;;;;10.75;6.00;;;;;;;;6304915;22;45398;-73
2023/09/14 16:59:01;;;;;;;;;8.25;5.50;;;;;;;;6309320;22;45333;-73
2023/09/14 17:01:27;;;;;;;;;5.20;5.20;;;;;;;;6280105;22;45306;-74
2023/09/14 17:03:52;;;;;;;;;7.75;5.75;;;;;;;;6309991;22;45334;-73
2023/09/14 17:06:17;;;;;;;;;5.50;5.50;;;;;;;;6308950;22;45429;-73
2023/09/14 17:08:43;;;;;;;;;4.50;4.50;;;;;;;;6309451;22;45144;-74
2023/09/14 17:11:08;;;;;;;;;5.00;5.00;;;;;;;;6308522;22;45295;-74
2023/09/14 17:13:33;;;;;;;;;6.25;5.75;;;;;;;;6309346;22;45328;-73
2023/09/14 17:15:58;;;;;;;;;4.50;3.75;;;;;;;;6280682;22;45210;-74
2023/09/14 17:18:24;;;;;;;;;6.75;3.75;;;;;;;;6309428;22;46214;-73
2023/09/14 17:20:49;;;;;;;;;7.00;6.25;;;;;;;;6309238;22;45267;-73
2023/09/14 17:23:14;;;;;;;;;4.75;4.75;;;;;;;;6309718;22;45221;-74
2023/09/14 17:25:39;;;;;;;;;5.50;4.75;;;;;;;;6280490;22;45622;-74
2023/09/14 17:28:05;;;;;;;;;6.75;6.00;;;;;;;;6309108;22;45345;-74
2023/09/14 17:30:31;;;;;;;;;4.75;4.75;;;;;;;;6281420;22;45483;-74
2023/09/14 17:32:56;;;;;;;;;6.75;5.50;;;;;;;;6309176;22;45214;-73
2023/09/14 17:35:22;;;;;;;;;6.00;6.00;;;;;;;;6255512;22;45329;-74
2023/09/14 17:37:47;;;;;;;;;4.00;4.00;;;;;;;;6308951;22;45240;-73
2023/09/14 17:40:12;;;;;;;;;7.00;6.00;;;;;;;;6309218;22;45252;-74
2023/09/14 17:42:38;;;;;;;;;4.75;4.75;;;;;;;;6308636;22;45292;-74
2023/09/14 17:45:03;;;;;;;;;6.00;6.00;;;;;;;;6308851;22;46088;-74
2023/09/14 17:47:28;;;;;;;;;4.00;3.50;;;;;;;;6308902;22;45131;-74
2023/09/14 17:49:54;;;;;;;;;6.00;5.00;;;;;;;;6309011;22;45298;-74
2023/09/14 17:52:19;;;;;;;;;6.00;4.25;;;;;;;;6280799;22;45240;-74
2023/09/14 17:54:45;;;;;;;;;5.50;5.50;;;;;;;;6307949;22;45485;-74
2023/09/14 17:57:10;;;;;;;;;7.25;5.75;;;;;;;;6308600;22;45156;-74
2023/09/14 17:59:35;;;;;;;;;4.50;4.50;;;;;;;;6281123;22;45097;-73
2023/09/14 18:02:00;;;;;;;;;6.50;6.00;;;;;;;;6309066;22;45145;-73
2023/09/14 18:04:26;;;;;;;;;4.25;4.00;;;;;;;;6309021;22;45204;-74
2023/09/14 18:06:52;;;;;;;;;5.25;5.25;;;;;;;;6280360;22;47100;-73
2023/09/14 18:09:17;;;;;;;;;7.25;6.25;;;;;;;;6280907;22;46164;-74
2023/09/14 18:11:42;;;;;;;;;9.50;7.00;;;;;;;;6308598;22;45374;-74
2023/09/14 18:14:08;;;;;;;;;8.00;6.00;;;;;;;;6281022;22;45261;-74
2023/09/14 18:16:34;;;;;;;;;5.00;5.00;;;;;;;;6308650;22;45302;-73
2023/09/14 18:18:59;;;;;;;;;6.40;4.60;;;;;;;;6309516;22;45198;-73
2023/09/14 18:21:25;;;;;;;;;9.25;6.25;;;;;;;;6280627;22;45431;-72
2023/09/14 18:23:51;;;;;;;;;6.00;6.00;;;;;;;;6308282;22;45250;-73
2023/09/14 18:26:16;;;;;;;;;6.00;6.00;;;;;;;;6308075;22;46008;-73
2023/09/14 18:28:41;;;;;;;;;4.00;4.00;;;;;;;;6308845;22;45223;-73
2023/09/14 18:31:09;;;;;;;;;4.50;4.50;;;;;;;;6281044;22;45311;-73
2023/09/14 18:33:35;;;;;;;;;5.00;5.00;;;;;;;;6280815;22;45343;-73
2023/09/14 18:36:01;;;;;;;;;6.25;5.75;;;;;;;;6308636;22;46614;-73
2023/09/14 18:38:27;;;;;;;;;6.50;6.50;;;;;;;;6309027;22;45085;-74
2023/09/14 18:41:02;;;;;;;;;7.75;6.25;;;;;;;;6308653;22;45261;-74
2023/09/14 18:43:28;;;;;;;;;5.00;5.00;;;;;;;;6308068;22;45512;-74
2023/09/14 18:45:53;;;;;;;;;6.75;5.50;;;;;;;;6308266;22;45209;-73
2023/09/14 18:48:19;;;;;;;;;6.50;6.00;;;;;;;;6308719;22;45325;-73
2023/09/14 18:50:48;;;;;;;;;8.50;6.50;;;;;;;;6308467;22;45233;-73
2023/09/14 18:53:13;;;;;;;;;6.25;6.25;;;;;;;;6308211;22;45444;-74
2023/09/14 18:55:45;;;;;;;;;6.75;6.75;;;;;;;;6307671;22;46150;-74
2023/09/14 18:58:10;;;;;;;;;6.50;6.50;;;;;;;;6308896;22;45220;-73
2023/09/14 19:00:35;;;;;;;;;5.50;4.50;;;;;;;;6309071;22;45356;-74
2023/09/14 19:03:00;;;;;;;;;7.00;6.25;;;;;;;;6308456;22;45213;-74
2023/09/14 19:05:27;;;;;;;;;7.50;5.75;;;;;;;;6280190;22;47046;-74